sensor_id;sensor_type;location;lat;lon;timestamp;pressure;altitude;pressure_sealevel;temperature;humidity
78751;BME280;68070;50.954;11.060;2024-03-08T10:37:25;99102.13;;;13.19;33.87
78751;BME280;68070;50.954;11.060;2024-03-08T10:40:01;99104.49;;;12.95;34.61
78751;BME280;68070;50.954;11.060;2024-03-08T10:42:40;99103.27;;;12.57;34.66
78751;BME280;68070;50.954;11.060;2024-03-08T10:45:19;99094.23;;;12.61;35.01
78751;BME280;68070;50.954;11.060;2024-03-08T10:47:49;99095.16;;;12.80;35.24
78751;BME280;68070;50.954;11.060;2024-03-08T10:50:20;99098.29;;;12.94;34.71
78751;BME280;68070;50.954;11.060;2024-03-08T10:53:50;99096.71;;;13.59;34.99
78751;BME280;68070;50.954;11.060;2024-03-08T10:56:17;99100.05;;;13.97;33.64
78751;BME280;68070;50.954;11.060;2024-03-08T10:58:44;99094.58;;;14.51;33.30
78751;BME280;68070;50.954;11.060;2024-03-08T11:01:11;99097.05;;;15.18;31.31
78751;BME280;68070;50.954;11.060;2024-03-08T11:06:14;99094.84;;;16.10;30.30
78751;BME280;68070;50.954;11.060;2024-03-08T11:08:41;99084.17;;;16.64;30.52
78751;BME280;68070;50.954;11.060;2024-03-08T11:11:24;99088.12;;;17.22;28.77
78751;BME280;68070;50.954;11.060;2024-03-08T11:13:53;99081.45;;;17.80;29.18
78751;BME280;68070;50.954;11.060;2024-03-08T11:16:37;99078.77;;;18.08;27.41
78751;BME280;68070;50.954;11.060;2024-03-08T11:19:23;99082.23;;;17.83;26.77
78751;BME280;68070;50.954;11.060;2024-03-08T11:22:00;99074.23;;;18.18;27.31
78751;BME280;68070;50.954;11.060;2024-03-08T11:24:27;99069.64;;;18.22;26.16
78751;BME280;68070;50.954;11.060;2024-03-08T11:26:58;99060.46;;;18.47;27.62
78751;BME280;68070;50.954;11.060;2024-03-08T11:32:15;99053.81;;;18.94;26.56
78751;BME280;68070;50.954;11.060;2024-03-08T11:34:46;99051.67;;;19.28;26.51
78751;BME280;68070;50.954;11.060;2024-03-08T11:37:14;99043.47;;;19.80;26.32
78751;BME280;68070;50.954;11.060;2024-03-08T11:39:52;99037.68;;;20.32;25.82
78751;BME280;68070;50.954;11.060;2024-03-08T11:42:25;99033.83;;;20.28;24.37
78751;BME280;68070;50.954;11.060;2024-03-08T11:44:54;99026.79;;;20.47;24.53
78751;BME280;68070;50.954;11.060;2024-03-08T11:47:20;99021.93;;;20.94;25.11
78751;BME280;68070;50.954;11.060;2024-03-08T11:49:46;99017.22;;;21.26;24.17
78751;BME280;68070;50.954;11.060;2024-03-08T11:52:16;99012.92;;;21.53;23.40
78751;BME280;68070;50.954;11.060;2024-03-08T11:54:52;99014.77;;;21.78;22.58
78751;BME280;68070;50.954;11.060;2024-03-08T11:57:23;99009.11;;;21.95;21.75
78751;BME280;68070;50.954;11.060;2024-03-08T11:59:53;99003.23;;;22.41;22.94
78751;BME280;68070;50.954;11.060;2024-03-08T12:02:19;99001.56;;;22.47;21.75
78751;BME280;68070;50.954;11.060;2024-03-08T12:04:45;98991.59;;;22.37;21.76
78751;BME280;68070;50.954;11.060;2024-03-08T12:07:15;98988.93;;;22.53;21.03
78751;BME280;68070;50.954;11.060;2024-03-08T12:10:20;98983.78;;;22.75;21.83
78751;BME280;68070;50.954;11.060;2024-03-08T12:12:54;98975.83;;;23.15;20.46
78751;BME280;68070;50.954;11.060;2024-03-08T12:15:23;98973.18;;;23.80;20.84
78751;BME280;68070;50.954;11.060;2024-03-08T12:18:55;98967.60;;;24.43;18.86
78751;BME280;68070;50.954;11.060;2024-03-08T12:21:21;98964.98;;;25.04;19.68
78751;BME280;68070;50.954;11.060;2024-03-08T12:24:07;98956.77;;;25.68;18.29
78751;BME280;68070;50.954;11.060;2024-03-08T12:26:38;98957.69;;;25.98;17.80
78751;BME280;68070;50.954;11.060;2024-03-08T12:29:27;98945.11;;;26.47;18.18
78751;BME280;68070;50.954;11.060;2024-03-08T12:31:59;98942.74;;;26.96;17.55
78751;BME280;68070;50.954;11.060;2024-03-08T12:34:27;98943.17;;;26.87;16.38
78751;BME280;68070;50.954;11.060;2024-03-08T12:36:54;98934.40;;;27.36;17.26
78751;BME280;68070;50.954;11.060;2024-03-08T12:39:22;98939.49;;;27.32;16.36
78751;BME280;68070;50.954;11.060;2024-03-08T12:41:50;98932.91;;;27.16;15.87
78751;BME280;68070;50.954;11.060;2024-03-08T12:44:20;98931.04;;;27.85;16.30
78751;BME280;68070;50.954;11.060;2024-03-08T12:46:50;98920.20;;;28.36;15.75
78751;BME280;68070;50.954;11.060;2024-03-08T12:49:17;98913.45;;;28.58;15.44
78751;BME280;68070;50.954;11.060;2024-03-08T12:51:44;98912.94;;;29.15;16.18
78751;BME280;68070;50.954;11.060;2024-03-08T12:54:10;98911.55;;;29.44;14.90
78751;BME280;68070;50.954;11.060;2024-03-08T12:56:37;98906.59;;;29.75;14.53
78751;BME280;68070;50.954;11.060;2024-03-08T12:59:04;98903.37;;;29.88;14.86
78751;BME280;68070;50.954;11.060;2024-03-08T13:01:31;98900.86;;;29.70;14.65
78751;BME280;68070;50.954;11.060;2024-03-08T13:03:58;98899.73;;;29.55;13.93
78751;BME280;68070;50.954;11.060;2024-03-08T13:06:24;98890.40;;;29.63;14.62
78751;BME280;68070;50.954;11.060;2024-03-08T13:08:51;98885.02;;;29.72;14.22
78751;BME280;68070;50.954;11.060;2024-03-08T13:11:18;98884.27;;;29.57;13.95
78751;BME280;68070;50.954;11.060;2024-03-08T13:13:46;98879.71;;;29.26;14.01
78751;BME280;68070;50.954;11.060;2024-03-08T13:16:12;98873.91;;;29.34;14.18
78751;BME280;68070;50.954;11.060;2024-03-08T13:18:43;98876.12;;;28.96;14.01
78751;BME280;68070;50.954;11.060;2024-03-08T13:21:09;98868.83;;;28.68;14.26
78751;BME280;68070;50.954;11.060;2024-03-08T13:23:37;98873.40;;;28.89;14.24
78751;BME280;68070;50.954;11.060;2024-03-08T13:26:10;98871.90;;;29.05;14.00
78751;BME280;68070;50.954;11.060;2024-03-08T13:28:47;98868.30;;;29.27;14.12
78751;BME280;68070;50.954;11.060;2024-03-08T13:31:22;98870.36;;;29.05;14.15
78751;BME280;68070;50.954;11.060;2024-03-08T13:33:48;98862.23;;;28.62;14.29
78751;BME280;68070;50.954;11.060;2024-03-08T13:36:15;98857.78;;;28.35;14.78
78751;BME280;68070;50.954;11.060;2024-03-08T13:38:46;98858.90;;;28.11;14.55
78751;BME280;68070;50.954;11.060;2024-03-08T13:41:14;98854.66;;;28.56;15.23
78751;BME280;68070;50.954;11.060;2024-03-08T13:43:43;98853.86;;;28.49;14.48
78751;BME280;68070;50.954;11.060;2024-03-08T13:46:11;98847.10;;;28.33;14.89
78751;BME280;68070;50.954;11.060;2024-03-08T13:48:38;98844.76;;;28.21;15.05
78751;BME280;68070;50.954;11.060;2024-03-08T13:51:07;98837.52;;;28.19;15.41
78751;BME280;68070;50.954;11.060;2024-03-08T13:53:36;98838.18;;;27.52;15.55
78751;BME280;68070;50.954;11.060;2024-03-08T13:56:02;98827.17;;;27.76;15.79
78751;BME280;68070;50.954;11.060;2024-03-08T13:58:29;98835.79;;;27.67;15.28
78751;BME280;68070;50.954;11.060;2024-03-08T14:00:55;98826.49;;;26.92;15.77
78751;BME280;68070;50.954;11.060;2024-03-08T14:03:21;98824.81;;;27.26;15.78
78751;BME280;68070;50.954;11.060;2024-03-08T14:05:47;98818.01;;;27.05;15.51
78751;BME280;68070;50.954;11.060;2024-03-08T14:08:13;98815.02;;;27.64;15.95
78751;BME280;68070;50.954;11.060;2024-03-08T14:10:39;98810.64;;;28.04;15.54
78751;BME280;68070;50.954;11.060;2024-03-08T14:13:07;98804.65;;;27.91;15.08
78751;BME280;68070;50.954;11.060;2024-03-08T14:15:34;98803.13;;;28.04;14.84
78751;BME280;68070;50.954;11.060;2024-03-08T14:18:01;98799.69;;;27.80;15.05
78751;BME280;68070;50.954;11.060;2024-03-08T14:20:27;98796.20;;;27.96;15.15
78751;BME280;68070;50.954;11.060;2024-03-08T14:22:55;98792.08;;;28.12;14.85
78751;BME280;68070;50.954;11.060;2024-03-08T14:25:25;98790.15;;;28.50;14.86
78751;BME280;68070;50.954;11.060;2024-03-08T14:27:52;98790.19;;;28.53;14.60
78751;BME280;68070;50.954;11.060;2024-03-08T14:30:20;98785.65;;;28.72;14.78
78751;BME280;68070;50.954;11.060;2024-03-08T14:33:04;98774.56;;;28.38;14.82
78751;BME280;68070;50.954;11.060;2024-03-08T14:35:38;98778.98;;;28.44;14.75
78751;BME280;68070;50.954;11.060;2024-03-08T14:38:04;98771.70;;;28.74;14.96
78751;BME280;68070;50.954;11.060;2024-03-08T14:40:34;98768.21;;;28.55;14.92
78751;BME280;68070;50.954;11.060;2024-03-08T14:43:00;98764.52;;;28.36;14.97
78751;BME280;68070;50.954;11.060;2024-03-08T14:45:26;98764.96;;;28.40;14.99
78751;BME280;68070;50.954;11.060;2024-03-08T14:47:52;98756.77;;;27.99;14.82
78751;BME280;68070;50.954;11.060;2024-03-08T14:50:19;98756.02;;;27.98;15.08
78751;BME280;68070;50.954;11.060;2024-03-08T14:52:45;98751.66;;;27.77;15.27
78751;BME280;68070;50.954;11.060;2024-03-08T14:55:14;98748.67;;;27.26;15.56
78751;BME280;68070;50.954;11.060;2024-03-08T14:57:41;98744.96;;;26.95;15.80
78751;BME280;68070;50.954;11.060;2024-03-08T15:00:08;98744.68;;;27.01;16.25
78751;BME280;68070;50.954;11.060;2024-03-08T15:02:43;98741.67;;;26.94;15.78
78751;BME280;68070;50.954;11.060;2024-03-08T15:05:09;98736.68;;;26.61;16.18
78751;BME280;68070;50.954;11.060;2024-03-08T15:07:37;98730.27;;;26.23;16.76
78751;BME280;68070;50.954;11.060;2024-03-08T15:10:07;98730.12;;;26.08;16.94
78751;BME280;68070;50.954;11.060;2024-03-08T15:12:37;98723.75;;;25.71;17.29
78751;BME280;68070;50.954;11.060;2024-03-08T15:15:07;98720.70;;;25.90;17.39
78751;BME280;68070;50.954;11.060;2024-03-08T15:17:34;98714.59;;;26.14;17.40
78751;BME280;68070;50.954;11.060;2024-03-08T15:20:03;98708.11;;;25.91;17.20
78751;BME280;68070;50.954;11.060;2024-03-08T15:22:29;98705.09;;;25.83;17.60
78751;BME280;68070;50.954;11.060;2024-03-08T15:24:55;98702.36;;;25.25;17.68
78751;BME280;68070;50.954;11.060;2024-03-08T15:27:23;98699.88;;;24.77;18.25
78751;BME280;68070;50.954;11.060;2024-03-08T15:29:50;98700.36;;;24.31;18.90
78751;BME280;68070;50.954;11.060;2024-03-08T15:32:17;98695.58;;;24.37;18.89
78751;BME280;68070;50.954;11.060;2024-03-08T15:34:46;98689.08;;;24.35;18.93
78751;BME280;68070;50.954;11.060;2024-03-08T15:37:12;98685.16;;;24.13;19.02
78751;BME280;68070;50.954;11.060;2024-03-08T15:39:43;98683.29;;;23.75;19.41
78751;BME280;68070;50.954;11.060;2024-03-08T15:42:09;98680.38;;;23.38;19.70
78751;BME280;68070;50.954;11.060;2024-03-08T15:44:39;98679.75;;;23.51;19.88
78751;BME280;68070;50.954;11.060;2024-03-08T15:47:07;98675.85;;;23.35;19.89
78751;BME280;68070;50.954;11.060;2024-03-08T15:49:36;98674.30;;;23.09;20.05
78751;BME280;68070;50.954;11.060;2024-03-08T15:52:02;98667.80;;;22.51;20.76
78751;BME280;68070;50.954;11.060;2024-03-08T15:54:27;98662.35;;;22.35;21.10
78751;BME280;68070;50.954;11.060;2024-03-08T15:56:53;98655.73;;;22.30;21.31
78751;BME280;68070;50.954;11.060;2024-03-08T15:59:19;98655.95;;;22.31;21.37
78751;BME280;68070;50.954;11.060;2024-03-08T16:01:46;98652.00;;;22.19;21.54
78751;BME280;68070;50.954;11.060;2024-03-08T16:04:16;98649.66;;;21.94;21.74
78751;BME280;68070;50.954;11.060;2024-03-08T16:06:42;98653.74;;;21.55;22.28
78751;BME280;68070;50.954;11.060;2024-03-08T16:09:10;98649.33;;;20.90;22.93
78751;BME280;68070;50.954;11.060;2024-03-08T16:11:41;98643.05;;;20.34;23.85
78751;BME280;68070;50.954;11.060;2024-03-08T16:14:06;98643.14;;;19.82;24.50
78751;BME280;68070;50.954;11.060;2024-03-08T16:16:39;98644.29;;;19.36;25.11
78751;BME280;68070;50.954;11.060;2024-03-08T16:19:05;98637.25;;;18.83;25.90
78751;BME280;68070;50.954;11.060;2024-03-08T16:21:34;98634.33;;;18.36;26.69
78751;BME280;68070;50.954;11.060;2024-03-08T16:23:59;98632.77;;;18.03;27.15
78751;BME280;68070;50.954;11.060;2024-03-08T16:26:25;98628.46;;;17.72;26.96
78751;BME280;68070;50.954;11.060;2024-03-08T16:28:53;98629.42;;;17.21;28.36
78751;BME280;68070;50.954;11.060;2024-03-08T16:31:21;98628.05;;;16.84;28.93
78751;BME280;68070;50.954;11.060;2024-03-08T16:33:47;98626.98;;;16.51;29.60
78751;BME280;68070;50.954;11.060;2024-03-08T16:36:13;98622.55;;;16.22;30.00
78751;BME280;68070;50.954;11.060;2024-03-08T16:38:39;98621.31;;;16.06;30.39
78751;BME280;68070;50.954;11.060;2024-03-08T16:41:06;98621.30;;;15.94;30.14
78751;BME280;68070;50.954;11.060;2024-03-08T16:43:32;98623.12;;;15.67;31.43
78751;BME280;68070;50.954;11.060;2024-03-08T16:45:58;98619.51;;;15.48;31.43
78751;BME280;68070;50.954;11.060;2024-03-08T16:48:26;98620.34;;;15.26;31.67
78751;BME280;68070;50.954;11.060;2024-03-08T16:50:52;98618.79;;;15.00;32.77
78751;BME280;68070;50.954;11.060;2024-03-08T16:53:20;98620.03;;;14.76;33.29
78751;BME280;68070;50.954;11.060;2024-03-08T16:55:45;98615.35;;;14.46;33.59
78751;BME280;68070;50.954;11.060;2024-03-08T16:58:17;98612.17;;;14.17;34.84
78751;BME280;68070;50.954;11.060;2024-03-08T17:00:43;98612.66;;;13.86;35.16
78751;BME280;68070;50.954;11.060;2024-03-08T17:03:09;98610.75;;;13.68;34.50
78751;BME280;68070;50.954;11.060;2024-03-08T17:05:37;98615.56;;;13.53;35.15
78751;BME280;68070;50.954;11.060;2024-03-08T17:08:04;98612.89;;;13.43;34.65
78751;BME280;68070;50.954;11.060;2024-03-08T17:10:31;98616.02;;;13.29;35.42
78751;BME280;68070;50.954;11.060;2024-03-08T17:12:59;98617.54;;;13.12;35.61
78751;BME280;68070;50.954;11.060;2024-03-08T17:15:27;98617.93;;;12.96;35.43
78751;BME280;68070;50.954;11.060;2024-03-08T17:17:58;98615.59;;;12.77;35.91
78751;BME280;68070;50.954;11.060;2024-03-08T17:20:27;98608.23;;;12.51;36.26
78751;BME280;68070;50.954;11.060;2024-03-08T17:22:55;98604.84;;;12.33;36.03
78751;BME280;68070;50.954;11.060;2024-03-08T17:25:23;98608.58;;;12.09;36.85
78751;BME280;68070;50.954;11.060;2024-03-08T17:27:51;98602.95;;;11.94;36.43
78751;BME280;68070;50.954;11.060;2024-03-08T17:30:22;98603.38;;;11.81;36.88
78751;BME280;68070;50.954;11.060;2024-03-08T17:33:00;98603.61;;;11.70;37.66
78751;BME280;68070;50.954;11.060;2024-03-08T17:35:31;98602.00;;;11.59;37.38
78751;BME280;68070;50.954;11.060;2024-03-08T17:38:01;98612.23;;;11.50;37.90
78751;BME280;68070;50.954;11.060;2024-03-08T17:40:34;98614.01;;;11.39;37.57
78751;BME280;68070;50.954;11.060;2024-03-08T17:43:04;98613.23;;;11.34;36.60
78751;BME280;68070;50.954;11.060;2024-03-08T17:45:35;98612.00;;;11.27;36.83
78751;BME280;68070;50.954;11.060;2024-03-08T17:48:02;98610.59;;;11.21;36.73
78751;BME280;68070;50.954;11.060;2024-03-08T17:50:41;98611.73;;;11.14;37.57
78751;BME280;68070;50.954;11.060;2024-03-08T17:53:08;98608.02;;;11.09;37.49
78751;BME280;68070;50.954;11.060;2024-03-08T17:55:35;98607.52;;;11.04;38.09
78751;BME280;68070;50.954;11.060;2024-03-08T17:58:03;98609.23;;;11.01;37.98
78751;BME280;68070;50.954;11.060;2024-03-08T18:00:31;98611.96;;;10.94;38.28
78751;BME280;68070;50.954;11.060;2024-03-08T18:03:01;98607.49;;;10.88;38.43
78751;BME280;68070;50.954;11.060;2024-03-08T18:05:31;98607.67;;;10.77;38.07
78751;BME280;68070;50.954;11.060;2024-03-08T18:07:59;98604.35;;;10.67;38.58
78751;BME280;68070;50.954;11.060;2024-03-08T18:10:26;98605.67;;;10.58;38.40
78751;BME280;68070;50.954;11.060;2024-03-08T18:12:57;98605.42;;;10.48;39.21
78751;BME280;68070;50.954;11.060;2024-03-08T18:15:25;98602.23;;;10.39;39.53
78751;BME280;68070;50.954;11.060;2024-03-08T18:17:58;98605.24;;;10.33;39.81
78751;BME280;68070;50.954;11.060;2024-03-08T18:20:27;98601.77;;;10.25;39.83
78751;BME280;68070;50.954;11.060;2024-03-08T18:23:08;98596.35;;;10.14;39.50
78751;BME280;68070;50.954;11.060;2024-03-08T18:25:34;98593.73;;;10.00;39.78
78751;BME280;68070;50.954;11.060;2024-03-08T18:28:02;98589.63;;;9.89;39.85
78751;BME280;68070;50.954;11.060;2024-03-08T18:30:31;98590.23;;;9.79;40.34
78751;BME280;68070;50.954;11.060;2024-03-08T18:32:58;98584.44;;;9.69;40.86
78751;BME280;68070;50.954;11.060;2024-03-08T18:35:24;98582.46;;;9.60;41.03
78751;BME280;68070;50.954;11.060;2024-03-08T18:37:50;98581.92;;;9.51;41.27
78751;BME280;68070;50.954;11.060;2024-03-08T18:40:17;98581.29;;;9.46;41.42
78751;BME280;68070;50.954;11.060;2024-03-08T18:42:47;98581.40;;;9.40;42.12
78751;BME280;68070;50.954;11.060;2024-03-08T18:45:14;98585.52;;;9.28;42.29
78751;BME280;68070;50.954;11.060;2024-03-08T18:47:46;98589.72;;;9.22;42.16
78751;BME280;68070;50.954;11.060;2024-03-08T18:50:15;98588.06;;;9.13;41.76
78751;BME280;68070;50.954;11.060;2024-03-08T18:52:44;98584.55;;;9.03;42.51
78751;BME280;68070;50.954;11.060;2024-03-08T18:55:10;98586.88;;;8.96;42.62
78751;BME280;68070;50.954;11.060;2024-03-08T18:57:42;98588.11;;;8.87;42.58
78751;BME280;68070;50.954;11.060;2024-03-08T19:02:51;98580.44;;;8.66;43.27
78751;BME280;68070;50.954;11.060;2024-03-08T19:05:18;98574.52;;;8.55;44.46
78751;BME280;68070;50.954;11.060;2024-03-08T19:07:47;98573.40;;;8.45;44.65
78751;BME280;68070;50.954;11.060;2024-03-08T19:10:15;98572.52;;;8.36;45.02
78751;BME280;68070;50.954;11.060;2024-03-08T19:12:48;98570.79;;;8.25;44.72
78751;BME280;68070;50.954;11.060;2024-03-08T19:15:15;98573.55;;;8.14;45.64
78751;BME280;68070;50.954;11.060;2024-03-08T19:17:43;98572.35;;;8.04;46.13
78751;BME280;68070;50.954;11.060;2024-03-08T19:20:10;98571.23;;;7.97;45.17
78751;BME280;68070;50.954;11.060;2024-03-08T19:22:42;98566.71;;;7.91;45.83
78751;BME280;68070;50.954;11.060;2024-03-08T19:25:09;98565.06;;;7.84;45.18
78751;BME280;68070;50.954;11.060;2024-03-08T19:27:38;98559.45;;;7.75;46.22
78751;BME280;68070;50.954;11.060;2024-03-08T19:30:08;98557.36;;;7.67;45.97
78751;BME280;68070;50.954;11.060;2024-03-08T19:32:35;98553.27;;;7.60;45.93
78751;BME280;68070;50.954;11.060;2024-03-08T19:35:01;98550.76;;;7.55;46.23
78751;BME280;68070;50.954;11.060;2024-03-08T19:37:36;98554.52;;;7.50;47.23
78751;BME280;68070;50.954;11.060;2024-03-08T19:40:12;98550.51;;;7.44;47.07
78751;BME280;68070;50.954;11.060;2024-03-08T19:42:49;98548.83;;;7.38;47.29
78751;BME280;68070;50.954;11.060;2024-03-08T19:45:16;98550.38;;;7.33;47.88
78751;BME280;68070;50.954;11.060;2024-03-08T19:47:43;98543.95;;;7.28;47.75
78751;BME280;68070;50.954;11.060;2024-03-08T19:50:16;98543.56;;;7.24;47.93
78751;BME280;68070;50.954;11.060;2024-03-08T19:52:48;98542.33;;;7.19;48.73
78751;BME280;68070;50.954;11.060;2024-03-08T19:55:16;98545.85;;;7.11;49.43
78751;BME280;68070;50.954;11.060;2024-03-08T19:57:46;98548.72;;;7.00;48.66
78751;BME280;68070;50.954;11.060;2024-03-08T20:00:17;98548.70;;;6.90;49.21
78751;BME280;68070;50.954;11.060;2024-03-08T20:02:49;98549.21;;;6.80;49.41
78751;BME280;68070;50.954;11.060;2024-03-08T20:05:15;98549.00;;;6.67;49.67
78751;BME280;68070;50.954;11.060;2024-03-08T20:07:43;98553.70;;;6.55;49.15
78751;BME280;68070;50.954;11.060;2024-03-08T20:10:15;98558.04;;;6.43;48.96
78751;BME280;68070;50.954;11.060;2024-03-08T20:12:43;98555.15;;;6.33;49.58
78751;BME280;68070;50.954;11.060;2024-03-08T20:15:10;98553.48;;;6.26;49.89
78751;BME280;68070;50.954;11.060;2024-03-08T20:17:38;98551.88;;;6.18;49.75
78751;BME280;68070;50.954;11.060;2024-03-08T20:20:05;98546.48;;;6.08;50.11
78751;BME280;68070;50.954;11.060;2024-03-08T20:22:31;98547.88;;;5.98;49.96
78751;BME280;68070;50.954;11.060;2024-03-08T20:24:57;98548.30;;;5.88;50.69
78751;BME280;68070;50.954;11.060;2024-03-08T20:27:25;98546.23;;;5.84;51.11
78751;BME280;68070;50.954;11.060;2024-03-08T20:29:55;98544.14;;;5.86;52.01
78751;BME280;68070;50.954;11.060;2024-03-08T20:32:21;98541.90;;;5.92;51.76
78751;BME280;68070;50.954;11.060;2024-03-08T20:34:47;98543.84;;;5.97;51.86
78751;BME280;68070;50.954;11.060;2024-03-08T20:37:13;98539.80;;;6.02;52.40
78751;BME280;68070;50.954;11.060;2024-03-08T20:39:39;98546.24;;;6.06;52.56
78751;BME280;68070;50.954;11.060;2024-03-08T20:42:06;98546.13;;;6.08;52.09
78751;BME280;68070;50.954;11.060;2024-03-08T20:44:32;98540.17;;;6.08;52.12
78751;BME280;68070;50.954;11.060;2024-03-08T20:46:58;98536.94;;;6.06;51.98
78751;BME280;68070;50.954;11.060;2024-03-08T20:49:24;98532.90;;;6.05;51.96
78751;BME280;68070;50.954;11.060;2024-03-08T20:51:50;98529.88;;;6.03;51.74
78751;BME280;68070;50.954;11.060;2024-03-08T20:54:15;98528.12;;;6.00;51.95
78751;BME280;68070;50.954;11.060;2024-03-08T20:56:42;98525.46;;;5.97;52.11
78751;BME280;68070;50.954;11.060;2024-03-08T20:59:08;98526.81;;;5.96;51.11
78751;BME280;68070;50.954;11.060;2024-03-08T21:01:36;98524.77;;;5.92;52.31
78751;BME280;68070;50.954;11.060;2024-03-08T21:04:02;98526.84;;;5.89;51.93
78751;BME280;68070;50.954;11.060;2024-03-08T21:06:29;98523.46;;;5.86;52.17
78751;BME280;68070;50.954;11.060;2024-03-08T21:08:57;98521.86;;;5.84;52.00
78751;BME280;68070;50.954;11.060;2024-03-08T21:11:22;98519.20;;;5.81;51.88
78751;BME280;68070;50.954;11.060;2024-03-08T21:13:52;98515.55;;;5.78;52.06
78751;BME280;68070;50.954;11.060;2024-03-08T21:16:18;98511.41;;;5.73;52.15
78751;BME280;68070;50.954;11.060;2024-03-08T21:18:44;98509.77;;;5.72;52.21
78751;BME280;68070;50.954;11.060;2024-03-08T21:21:10;98504.00;;;5.71;52.54
78751;BME280;68070;50.954;11.060;2024-03-08T21:23:37;98504.27;;;5.66;52.35
78751;BME280;68070;50.954;11.060;2024-03-08T21:26:03;98495.80;;;5.61;52.66
78751;BME280;68070;50.954;11.060;2024-03-08T21:28:34;98494.27;;;5.56;52.59
78751;BME280;68070;50.954;11.060;2024-03-08T21:30:59;98493.55;;;5.54;52.60
78751;BME280;68070;50.954;11.060;2024-03-08T21:33:26;98491.55;;;5.49;53.21
78751;BME280;68070;50.954;11.060;2024-03-08T21:35:52;98486.52;;;5.43;53.53
78751;BME280;68070;50.954;11.060;2024-03-08T21:38:18;98484.84;;;5.38;53.43
78751;BME280;68070;50.954;11.060;2024-03-08T21:40:45;98475.18;;;5.35;53.65
78751;BME280;68070;50.954;11.060;2024-03-08T21:43:11;98471.13;;;5.32;53.79
78751;BME280;68070;50.954;11.060;2024-03-08T21:45:37;98475.20;;;5.28;53.41
78751;BME280;68070;50.954;11.060;2024-03-08T21:48:03;98469.70;;;5.26;53.46
78751;BME280;68070;50.954;11.060;2024-03-08T21:50:31;98466.89;;;5.23;54.26
78751;BME280;68070;50.954;11.060;2024-03-08T21:52:59;98466.80;;;5.19;54.90
78751;BME280;68070;50.954;11.060;2024-03-08T21:55:27;98462.26;;;5.15;54.23
78751;BME280;68070;50.954;11.060;2024-03-08T21:57:55;98458.45;;;5.14;54.35
78751;BME280;68070;50.954;11.060;2024-03-08T22:00:24;98457.83;;;5.13;54.25
78751;BME280;68070;50.954;11.060;2024-03-08T22:02:50;98456.48;;;5.12;54.35
78751;BME280;68070;50.954;11.060;2024-03-08T22:05:18;98453.97;;;5.10;54.45
78751;BME280;68070;50.954;11.060;2024-03-08T22:07:46;98446.30;;;5.08;54.41
78751;BME280;68070;50.954;11.060;2024-03-08T22:10:16;98438.33;;;5.06;54.40
78751;BME280;68070;50.954;11.060;2024-03-08T22:12:49;98446.20;;;5.04;54.44
78751;BME280;68070;50.954;11.060;2024-03-08T22:15:16;98443.33;;;5.02;55.08
78751;BME280;68070;50.954;11.060;2024-03-08T22:17:43;98450.48;;;4.98;55.16
78751;BME280;68070;50.954;11.060;2024-03-08T22:20:14;98454.69;;;4.92;54.95
78751;BME280;68070;50.954;11.060;2024-03-08T22:22:53;98457.91;;;4.86;55.49
78751;BME280;68070;50.954;11.060;2024-03-08T22:25:20;98457.84;;;4.84;56.50
78751;BME280;68070;50.954;11.060;2024-03-08T22:27:47;98455.58;;;4.83;57.18
78751;BME280;68070;50.954;11.060;2024-03-08T22:30:19;98453.05;;;4.81;57.50
78751;BME280;68070;50.954;11.060;2024-03-08T22:32:45;98457.05;;;4.80;57.23
78751;BME280;68070;50.954;11.060;2024-03-08T22:35:15;98455.92;;;4.78;57.15
78751;BME280;68070;50.954;11.060;2024-03-08T22:37:42;98455.59;;;4.75;57.22
78751;BME280;68070;50.954;11.060;2024-03-08T22:39:40;98449.38;;;4.72;56.63
78751;BME280;68070;50.954;11.060;2024-03-08T22:40:10;98446.85;;;4.70;56.66
78751;BME280;68070;50.954;11.060;2024-03-08T22:40:41;98449.38;;;4.72;56.29
78751;BME280;68070;50.954;11.060;2024-03-08T22:41:12;98449.03;;;4.76;55.86
78751;BME280;68070;50.954;11.060;2024-03-08T22:41:44;98446.49;;;4.79;55.53
78751;BME280;68070;50.954;11.060;2024-03-08T22:42:14;98449.12;;;4.82;55.52
78751;BME280;68070;50.954;11.060;2024-03-08T22:42:46;98447.16;;;4.86;55.52
78751;BME280;68070;50.954;11.060;2024-03-08T22:43:16;98450.52;;;4.89;55.41
78751;BME280;68070;50.954;11.060;2024-03-08T22:43:47;98452.48;;;4.91;55.50
78751;BME280;68070;50.954;11.060;2024-03-08T22:44:17;98448.80;;;4.93;55.14
78751;BME280;68070;50.954;11.060;2024-03-08T22:44:48;98451.89;;;4.94;55.48
78751;BME280;68070;50.954;11.060;2024-03-08T22:45:20;98454.98;;;4.96;55.72
78751;BME280;68070;50.954;11.060;2024-03-08T22:45:51;98457.71;;;4.98;55.25
78751;BME280;68070;50.954;11.060;2024-03-08T22:46:23;98455.89;;;4.98;55.33
78751;BME280;68070;50.954;11.060;2024-03-08T22:46:54;98456.02;;;4.93;55.71
78751;BME280;68070;50.954;11.060;2024-03-08T22:47:26;98453.97;;;4.92;55.50
78751;BME280;68070;50.954;11.060;2024-03-08T22:47:57;98458.05;;;4.95;55.18
78751;BME280;68070;50.954;11.060;2024-03-08T22:48:27;98457.58;;;4.97;55.21
78751;BME280;68070;50.954;11.060;2024-03-08T22:48:57;98459.07;;;4.98;55.06
78751;BME280;68070;50.954;11.060;2024-03-08T22:49:28;98461.43;;;5.01;55.04
78751;BME280;68070;50.954;11.060;2024-03-08T22:49:59;98459.36;;;5.03;54.95
78751;BME280;68070;50.954;11.060;2024-03-08T22:50:30;98460.13;;;5.05;55.14
78751;BME280;68070;50.954;11.060;2024-03-08T22:51:00;98459.55;;;5.05;55.10
78751;BME280;68070;50.954;11.060;2024-03-08T22:51:33;98457.52;;;5.06;55.02
78751;BME280;68070;50.954;11.060;2024-03-08T22:52:04;98453.36;;;5.08;54.82
78751;BME280;68070;50.954;11.060;2024-03-08T22:52:34;98455.95;;;5.09;55.04
78751;BME280;68070;50.954;11.060;2024-03-08T22:53:09;98451.39;;;5.09;54.95
78751;BME280;68070;50.954;11.060;2024-03-08T22:53:43;98454.86;;;5.10;54.95
78751;BME280;68070;50.954;11.060;2024-03-08T22:54:14;98456.06;;;5.11;54.91